Andes — 5BFM3 — position and weather

sailwx.info

Track history (hours):
 
Tides and Currents Weather Stations Pressure Air Temp Water Temp Dewpoint Dewpoint Depression Visibility Wind Speed Wind Dir Waves Ship Positions

Andes

Last reported at 2015-Jun-28 06:25 UTC. Time now 2015-Jul-04 20:42 UTC.
Position S 12°58' W 038°11'.

Length 182 m; draft 8 m.

Type: Ship. MMSI: 209394000.

Date/timePositionNaut miles runAvg speedWind from/ knotsBaromVisibWave heightAir tempDewpointWater temp
2015-Jun-28 06:25S 12°58' W 038°11'1213.7
2015-Jun-28 05:33S 13°05' W 038°21'1212.3
2015-Jun-28 04:33S 13°06' W 038°34'10 9.4
2015-Jun-28 03:31S 12°57' W 038°33'1010.1
2015-Jun-28 02:33S 12°47' W 038°30'0 0.2
2015-Jun-28 01:31S 12°47' W 038°30'0 0.0
2015-Jun-28 00:31S 12°47' W 038°30'0 0.0
2015-Jun-27 23:31S 12°47' W 038°30'0 0.0
2015-Jun-27 22:31S 12°47' W 038°30'0 0.0
2015-Jun-27 21:31S 12°47' W 038°30'0 0.0
2015-Jun-27 20:31S 12°47' W 038°30'0 0.0
2015-Jun-27 19:31S 12°47' W 038°30'0 0.0
2015-Jun-27 18:31S 12°47' W 038°30'0 0.0
2015-Jun-27 17:31S 12°47' W 038°30'0 0.0
2015-Jun-27 16:31S 12°47' W 038°30'0 0.0
2015-Jun-27 15:31S 12°47' W 038°30'0 0.0
2015-Jun-27 14:31S 12°47' W 038°30'0 0.0
2015-Jun-27 13:31S 12°47' W 038°30'0 0.0
2015-Jun-27 12:31S 12°47' W 038°30'0 0.0
2015-Jun-27 11:31S 12°47' W 038°30'0 0.0
2015-Jun-27 10:31S 12°47' W 038°30'0 0.0
2015-Jun-27 09:31S 12°47' W 038°30'0 0.0
2015-Jun-27 08:31S 12°47' W 038°30'0 0.0
2015-Jun-27 07:31S 12°47' W 038°30'0 0.0
2015-Jun-27 06:31S 12°47' W 038°30'0 0.0
2015-Jun-27 05:31S 12°47' W 038°30'0 0.0
2015-Jun-27 04:31S 12°47' W 038°30'0 0.0
2015-Jun-27 03:31S 12°47' W 038°30'0 0.0
2015-Jun-27 02:31S 12°47' W 038°30'0 0.0
2015-Jun-27 01:31S 12°47' W 038°30'0 0.0
2015-Jun-27 00:31S 12°47' W 038°30'0 0.0
2015-Jun-26 23:31S 12°47' W 038°30'0 0.0
2015-Jun-26 22:31S 12°47' W 038°30'0 0.0
2015-Jun-26 21:28S 12°47' W 038°30'0 0.0
2015-Jun-26 20:25S 12°47' W 038°30'0 0.0
2015-Jun-26 19:31S 12°47' W 038°30'0 0.0
2015-Jun-26 18:31S 12°47' W 038°30'0 0.0
2015-Jun-26 17:28S 12°47' W 038°30'0 0.0
2015-Jun-26 16:22S 12°47' W 038°30'0 0.1
2015-Jun-26 15:33S 12°47' W 038°30'7 7.4
2015-Jun-26 14:34S 12°54' W 038°33'5 4.5
2015-Jun-26 13:33S 12°58' W 038°33'0 0.0
2015-Jun-26 12:33S 12°58' W 038°33'0 0.0
2015-Jun-26 11:33S 12°58' W 038°33'0 0.0
2015-Jun-26 10:33S 12°58' W 038°33'0 0.1
2015-Jun-26 09:33S 12°58' W 038°33'0 0.0
2015-Jun-26 08:33S 12°58' W 038°33'0 0.1
2015-Jun-26 07:33S 12°58' W 038°33'0 0.1
2015-Jun-26 06:30S 12°58' W 038°33'0 0.0
2015-Jun-26 05:33S 12°58' W 038°33'0 0.0
2015-Jun-26 04:33S 12°58' W 038°33'0 0.1
2015-Jun-26 03:33S 12°58' W 038°33'0 0.0
2015-Jun-26 02:33S 12°58' W 038°33'0 0.1
2015-Jun-26 01:33S 12°58' W 038°33'0 0.0
2015-Jun-26 00:33S 12°58' W 038°33'0 0.0
2015-Jun-25 23:33S 12°58' W 038°33'0 0.0
2015-Jun-25 22:33S 12°58' W 038°33'0 0.0
2015-Jun-25 21:33S 12°58' W 038°33'0 0.0
2015-Jun-25 20:33S 12°58' W 038°33'0 0.1
2015-Jun-25 19:33S 12°58' W 038°33'0 0.1
2015-Jun-25 18:30S 12°58' W 038°33'0 0.1
2015-Jun-25 17:33S 12°58' W 038°33'0 0.1
2015-Jun-25 16:33S 12°58' W 038°33'0 0.1
2015-Jun-25 15:33S 12°58' W 038°33'0 0.1
2015-Jun-25 14:33S 12°58' W 038°33'0 0.1
2015-Jun-25 13:33S 12°58' W 038°33'0 0.1
2015-Jun-25 12:33S 12°58' W 038°33'0 0.0
2015-Jun-25 11:33S 12°58' W 038°33'0 0.0
2015-Jun-25 10:30S 12°58' W 038°33'0 0.0
2015-Jun-25 09:33S 12°58' W 038°33'0 0.2
2015-Jun-25 08:21S 12°58' W 038°33'0 0.1
2015-Jun-25 07:33S 12°58' W 038°33'0 0.1
2015-Jun-25 06:33S 12°58' W 038°33'0 0.1
2015-Jun-25 05:30S 12°59' W 038°33'0 0.0
2015-Jun-25 04:33S 12°58' W 038°33'0 0.0
2015-Jun-25 03:33S 12°58' W 038°33'0 0.0
2015-Jun-25 02:33S 12°58' W 038°33'0 0.2
2015-Jun-25 01:33S 12°58' W 038°33'0 0.0
2015-Jun-25 00:33S 12°58' W 038°33'0 0.0
2015-Jun-24 23:33S 12°58' W 038°33'0 0.0
2015-Jun-24 22:33S 12°58' W 038°33'0 0.0
2015-Jun-24 21:33S 12°58' W 038°33'0 0.0
2015-Jun-24 20:33S 12°58' W 038°33'0 0.0
2015-Jun-24 19:33S 12°58' W 038°33'0 0.1
2015-Jun-24 18:33S 12°58' W 038°33'0 0.1
2015-Jun-24 17:33S 12°58' W 038°33'0 0.0
2015-Jun-24 16:33S 12°58' W 038°33'0 0.0
2015-Jun-24 15:33S 12°58' W 038°33'0 0.1
2015-Jun-24 14:33S 12°58' W 038°33'0 0.0
2015-Jun-24 13:33S 12°58' W 038°33'0 0.0
2015-Jun-24 12:33S 12°58' W 038°33'0 0.0
2015-Jun-24 11:33S 12°58' W 038°33'0 0.0
2015-Jun-24 10:33S 12°58' W 038°33'0 0.0
2015-Jun-24 09:33S 12°58' W 038°33'0 0.0
2015-Jun-24 08:33S 12°58' W 038°33'0 0.0
2015-Jun-24 07:30S 12°58' W 038°33'0 0.1
2015-Jun-24 06:33S 12°58' W 038°33'0 0.1
2015-Jun-24 05:30S 12°58' W 038°33'0 0.1
2015-Jun-24 04:33S 12°59' W 038°33'0 0.0
2015-Jun-24 03:33S 12°59' W 038°33'0 0.0
2015-Jun-24 02:33S 12°58' W 038°33'0 0.1
2015-Jun-24 01:33S 12°58' W 038°33'0 0.1
2015-Jun-24 00:33S 12°58' W 038°33'0 0.1
2015-Jun-23 23:33S 12°58' W 038°33'0 0.0
2015-Jun-23 22:33S 12°58' W 038°33'0 0.0
2015-Jun-23 21:33S 12°58' W 038°33'0 0.0
2015-Jun-23 20:33S 12°58' W 038°33'0 0.0
2015-Jun-23 19:33S 12°58' W 038°33'0 0.0
2015-Jun-23 19:03S 12°58' W 038°33'0 0.0
2015-Jun-22 19:33S 12°58' W 038°33'0 0.0
2015-Jun-22 18:33S 12°58' W 038°33'0 0.0
2015-Jun-22 17:33S 12°58' W 038°33'0 0.1
2015-Jun-22 16:33S 12°58' W 038°33'0 0.1
2015-Jun-22 15:33S 12°58' W 038°33'0 0.0
2015-Jun-22 14:33S 12°58' W 038°33'0 0.0
2015-Jun-22 13:33S 12°59' W 038°33'0 0.1
2015-Jun-22 12:27S 12°58' W 038°33'0 0.1
2015-Jun-22 11:33S 12°58' W 038°33'0 0.1
2015-Jun-22 10:33S 12°58' W 038°33'0 0.0
2015-Jun-22 09:33S 12°58' W 038°33'0 0.0
2015-Jun-22 08:33S 12°58' W 038°33'0 0.0
2015-Jun-22 07:30S 12°58' W 038°33'0 0.0
2015-Jun-22 06:33S 12°58' W 038°33'0 0.0
2015-Jun-22 05:33S 12°58' W 038°33'0 0.2
2015-Jun-22 04:33S 12°58' W 038°33'5 4.8
2015-Jun-22 03:32S 13°03' W 038°34'8 8.6
2015-Jun-22 02:33S 13°08' W 038°27'  
Track history (hours):
 
Tides and Currents Weather Stations Pressure Air Temp Water Temp Dewpoint Dewpoint Depression Visibility Wind Speed Wind Dir Waves Ship Positions

Andes

Last reported at 2015-Jun-28 06:25 UTC. Time now 2015-Jul-04 20:42 UTC.
Position S 12°58' W 038°11'.

Length 182 m; draft 8 m.

Type: Ship. MMSI: 209394000.

Date/timePositionNaut miles runAvg speedWind from/ knotsBaromVisibWave heightAir tempDewpointWater temp
2015-Jun-28 06:25S 12°58' W 038°11'1213.7
2015-Jun-28 05:33S 13°05' W 038°21'1212.3
2015-Jun-28 04:33S 13°06' W 038°34'10 9.4
2015-Jun-28 03:31S 12°57' W 038°33'1010.1
2015-Jun-28 02:33S 12°47' W 038°30'0 0.2
2015-Jun-28 01:31S 12°47' W 038°30'0 0.0
2015-Jun-28 00:31S 12°47' W 038°30'0 0.0
2015-Jun-27 23:31S 12°47' W 038°30'0 0.0
2015-Jun-27 22:31S 12°47' W 038°30'0 0.0
2015-Jun-27 21:31S 12°47' W 038°30'0 0.0
2015-Jun-27 20:31S 12°47' W 038°30'0 0.0
2015-Jun-27 19:31S 12°47' W 038°30'0 0.0
2015-Jun-27 18:31S 12°47' W 038°30'0 0.0
2015-Jun-27 17:31S 12°47' W 038°30'0 0.0
2015-Jun-27 16:31S 12°47' W 038°30'0 0.0
2015-Jun-27 15:31S 12°47' W 038°30'0 0.0
2015-Jun-27 14:31S 12°47' W 038°30'0 0.0
2015-Jun-27 13:31S 12°47' W 038°30'0 0.0
2015-Jun-27 12:31S 12°47' W 038°30'0 0.0
2015-Jun-27 11:31S 12°47' W 038°30'0 0.0
2015-Jun-27 10:31S 12°47' W 038°30'0 0.0
2015-Jun-27 09:31S 12°47' W 038°30'0 0.0
2015-Jun-27 08:31S 12°47' W 038°30'0 0.0
2015-Jun-27 07:31S 12°47' W 038°30'0 0.0
2015-Jun-27 06:31S 12°47' W 038°30'0 0.0
2015-Jun-27 05:31S 12°47' W 038°30'0 0.0
2015-Jun-27 04:31S 12°47' W 038°30'0 0.0
2015-Jun-27 03:31S 12°47' W 038°30'0 0.0
2015-Jun-27 02:31S 12°47' W 038°30'0 0.0
2015-Jun-27 01:31S 12°47' W 038°30'0 0.0
2015-Jun-27 00:31S 12°47' W 038°30'0 0.0
2015-Jun-26 23:31S 12°47' W 038°30'0 0.0
2015-Jun-26 22:31S 12°47' W 038°30'0 0.0
2015-Jun-26 21:28S 12°47' W 038°30'0 0.0
2015-Jun-26 20:25S 12°47' W 038°30'0 0.0
2015-Jun-26 19:31S 12°47' W 038°30'0 0.0
2015-Jun-26 18:31S 12°47' W 038°30'0 0.0
2015-Jun-26 17:28S 12°47' W 038°30'0 0.0
2015-Jun-26 16:22S 12°47' W 038°30'0 0.1
2015-Jun-26 15:33S 12°47' W 038°30'7 7.4
2015-Jun-26 14:34S 12°54' W 038°33'5 4.5
2015-Jun-26 13:33S 12°58' W 038°33'0 0.0
2015-Jun-26 12:33S 12°58' W 038°33'0 0.0
2015-Jun-26 11:33S 12°58' W 038°33'0 0.0
2015-Jun-26 10:33S 12°58' W 038°33'0 0.1
2015-Jun-26 09:33S 12°58' W 038°33'0 0.0
2015-Jun-26 08:33S 12°58' W 038°33'0 0.1
2015-Jun-26 07:33S 12°58' W 038°33'0 0.1
2015-Jun-26 06:30S 12°58' W 038°33'0 0.0
2015-Jun-26 05:33S 12°58' W 038°33'0 0.0
2015-Jun-26 04:33S 12°58' W 038°33'0 0.1
2015-Jun-26 03:33S 12°58' W 038°33'0 0.0
2015-Jun-26 02:33S 12°58' W 038°33'0 0.1
2015-Jun-26 01:33S 12°58' W 038°33'0 0.0
2015-Jun-26 00:33S 12°58' W 038°33'0 0.0
2015-Jun-25 23:33S 12°58' W 038°33'0 0.0
2015-Jun-25 22:33S 12°58' W 038°33'0 0.0
2015-Jun-25 21:33S 12°58' W 038°33'0 0.0
2015-Jun-25 20:33S 12°58' W 038°33'0 0.1
2015-Jun-25 19:33S 12°58' W 038°33'0 0.1
2015-Jun-25 18:30S 12°58' W 038°33'0 0.1
2015-Jun-25 17:33S 12°58' W 038°33'0 0.1
2015-Jun-25 16:33S 12°58' W 038°33'0 0.1
2015-Jun-25 15:33S 12°58' W 038°33'0 0.1
2015-Jun-25 14:33S 12°58' W 038°33'0 0.1
2015-Jun-25 13:33S 12°58' W 038°33'0 0.1
2015-Jun-25 12:33S 12°58' W 038°33'0 0.0
2015-Jun-25 11:33S 12°58' W 038°33'0 0.0
2015-Jun-25 10:30S 12°58' W 038°33'0 0.0
2015-Jun-25 09:33S 12°58' W 038°33'0 0.2
2015-Jun-25 08:21S 12°58' W 038°33'0 0.1
2015-Jun-25 07:33S 12°58' W 038°33'0 0.1
2015-Jun-25 06:33S 12°58' W 038°33'0 0.1
2015-Jun-25 05:30S 12°59' W 038°33'0 0.0
2015-Jun-25 04:33S 12°58' W 038°33'0 0.0
2015-Jun-25 03:33S 12°58' W 038°33'0 0.0
2015-Jun-25 02:33S 12°58' W 038°33'0 0.2
2015-Jun-25 01:33S 12°58' W 038°33'0 0.0
2015-Jun-25 00:33S 12°58' W 038°33'0 0.0
2015-Jun-24 23:33S 12°58' W 038°33'0 0.0
2015-Jun-24 22:33S 12°58' W 038°33'0 0.0
2015-Jun-24 21:33S 12°58' W 038°33'0 0.0
2015-Jun-24 20:33S 12°58' W 038°33'0 0.0
2015-Jun-24 19:33S 12°58' W 038°33'0 0.1
2015-Jun-24 18:33S 12°58' W 038°33'0 0.1
2015-Jun-24 17:33S 12°58' W 038°33'0 0.0
2015-Jun-24 16:33S 12°58' W 038°33'0 0.0
2015-Jun-24 15:33S 12°58' W 038°33'0 0.1
2015-Jun-24 14:33S 12°58' W 038°33'0 0.0
2015-Jun-24 13:33S 12°58' W 038°33'0 0.0
2015-Jun-24 12:33S 12°58' W 038°33'0 0.0
2015-Jun-24 11:33S 12°58' W 038°33'0 0.0
2015-Jun-24 10:33S 12°58' W 038°33'0 0.0
2015-Jun-24 09:33S 12°58' W 038°33'0 0.0
2015-Jun-24 08:33S 12°58' W 038°33'0 0.0
2015-Jun-24 07:30S 12°58' W 038°33'0 0.1
2015-Jun-24 06:33S 12°58' W 038°33'0 0.1
2015-Jun-24 05:30S 12°58' W 038°33'0 0.1
2015-Jun-24 04:33S 12°59' W 038°33'0 0.0
2015-Jun-24 03:33S 12°59' W 038°33'0 0.0
2015-Jun-24 02:33S 12°58' W 038°33'0 0.1
2015-Jun-24 01:33S 12°58' W 038°33'0 0.1
2015-Jun-24 00:33S 12°58' W 038°33'0 0.1
2015-Jun-23 23:33S 12°58' W 038°33'0 0.0
2015-Jun-23 22:33S 12°58' W 038°33'0 0.0
2015-Jun-23 21:33S 12°58' W 038°33'0 0.0
2015-Jun-23 20:33S 12°58' W 038°33'0 0.0
2015-Jun-23 19:33S 12°58' W 038°33'0 0.0
2015-Jun-23 19:03S 12°58' W 038°33'0 0.0
2015-Jun-22 19:33S 12°58' W 038°33'0 0.0
2015-Jun-22 18:33S 12°58' W 038°33'0 0.0
2015-Jun-22 17:33S 12°58' W 038°33'0 0.1
2015-Jun-22 16:33S 12°58' W 038°33'0 0.1
2015-Jun-22 15:33S 12°58' W 038°33'0 0.0
2015-Jun-22 14:33S 12°58' W 038°33'0 0.0
2015-Jun-22 13:33S 12°59' W 038°33'0 0.1
2015-Jun-22 12:27S 12°58' W 038°33'0 0.1
2015-Jun-22 11:33S 12°58' W 038°33'0 0.1
2015-Jun-22 10:33S 12°58' W 038°33'0 0.0
2015-Jun-22 09:33S 12°58' W 038°33'0 0.0
2015-Jun-22 08:33S 12°58' W 038°33'0 0.0
2015-Jun-22 07:30S 12°58' W 038°33'0 0.0
2015-Jun-22 06:33S 12°58' W 038°33'0 0.0
2015-Jun-22 05:33S 12°58' W 038°33'0 0.2
2015-Jun-22 04:33S 12°58' W 038°33'5 4.8
2015-Jun-22 03:32S 13°03' W 038°34'8 8.6
2015-Jun-22 02:33S 13°08' W 038°27'  

Dump ship's entire track history